Time,TemperatureF,DewpointF,PressureIn,WindDirection,WindDirectionDegrees,WindSpeedMPH,WindSpeedGustMPH,Humidity,HourlyPrecipIn,Conditions,Clouds,dailyrainin,SoftwareType,DateUTC
2013-12-01 00:04:00,41.5,41.2,29.75,NE,45,0.0,0.0,99,0.12,,,0.00,WUHU216HW,2013-12-01 08:04:00,
2013-12-01 00:09:00,41.7,41.4,29.75,NE,45,0.0,0.0,99,0.10,,,0.00,WUHU216HW,2013-12-01 08:09:00,
2013-12-01 00:14:00,41.7,41.4,29.73,NE,45,0.0,0.0,99,0.10,,,0.00,WUHU216HW,2013-12-01 08:14:00,
2013-12-01 00:19:00,41.7,41.4,29.73,NE,45,0.0,0.0,99,0.08,,,0.00,WUHU216HW,2013-12-01 08:19:00,
2013-12-01 00:24:00,41.7,41.4,29.73,NE,45,0.0,0.0,99,0.12,,,0.04,WUHU216HW,2013-12-01 08:24:00,
2013-12-01 00:29:00,41.7,41.4,29.73,NE,45,0.0,0.0,99,0.12,,,0.06,WUHU216HW,2013-12-01 08:29:00,
2013-12-01 00:34:00,41.7,41.4,29.72,NE,45,0.0,0.0,99,0.12,,,0.06,WUHU216HW,2013-12-01 08:34:00,
2013-12-01 00:39:00,41.7,41.4,29.72,NE,45,0.0,0.0,99,0.15,,,0.11,WUHU216HW,2013-12-01 08:39:00,
2013-12-01 00:44:00,41.9,41.6,29.72,NE,45,0.0,0.0,99,0.15,,,0.13,WUHU216HW,2013-12-01 08:44:00,
2013-12-01 00:49:00,41.9,41.6,29.72,NE,45,0.0,0.0,99,0.17,,,0.15,WUHU216HW,2013-12-01 08:49:00,
2013-12-01 00:54:00,41.9,41.6,29.72,NE,45,0.0,0.0,99,0.19,,,0.19,WUHU216HW,2013-12-01 08:54:00,
2013-12-01 00:59:00,42.0,41.8,29.72,NE,45,0.0,0.0,99,0.19,,,0.19,WUHU216HW,2013-12-01 08:59:00,
2013-12-01 01:04:00,42.0,41.8,29.71,NE,45,0.0,0.0,99,0.21,,,0.21,WUHU216HW,2013-12-01 09:04:00,
2013-12-01 01:09:00,42.4,42.1,29.70,NE,45,0.0,0.0,99,0.21,,,0.21,WUHU216HW,2013-12-01 09:09:00,
2013-12-01 01:14:00,42.4,42.1,29.69,NE,45,0.0,0.0,99,0.27,,,0.27,WUHU216HW,2013-12-01 09:14:00,
2013-12-01 01:19:00,42.6,42.3,29.69,NE,45,0.0,0.0,99,0.25,,,0.29,WUHU216HW,2013-12-01 09:19:00,
2013-12-01 01:24:00,42.6,42.3,29.69,NE,45,0.0,0.0,99,0.25,,,0.29,WUHU216HW,2013-12-01 09:24:00,
2013-12-01 01:29:00,42.9,42.7,29.68,South,180,0.0,0.0,99,0.25,,,0.31,WUHU216HW,2013-12-01 09:29:00,
2013-12-01 01:34:00,43.1,42.8,29.68,South,180,0.0,0.0,99,0.23,,,0.31,WUHU216HW,2013-12-01 09:34:00,
2013-12-01 01:39:00,43.3,43.0,29.67,SSW,203,0.0,0.0,99,0.20,,,0.31,WUHU216HW,2013-12-01 09:39:00,
2013-12-01 01:44:00,43.3,43.0,29.67,SSW,203,0.0,0.0,99,0.16,,,0.31,WUHU216HW,2013-12-01 09:44:00,
2013-12-01 01:49:00,43.3,43.0,29.65,SSW,203,0.0,0.0,99,0.18,,,0.33,WUHU216HW,2013-12-01 09:49:00,
2013-12-01 01:54:00,43.3,43.0,29.65,South,180,0.0,0.0,99,0.18,,,0.37,WUHU216HW,2013-12-01 09:54:00,
2013-12-01 01:59:00,43.5,43.2,29.65,South,180,0.0,0.0,99,0.18,,,0.37,WUHU216HW,2013-12-01 09:59:00,
2013-12-01 02:04:00,43.5,43.2,29.65,WSW,248,0.0,0.0,99,0.16,,,0.37,WUHU216HW,2013-12-01 10:04:00,
2013-12-01 02:09:00,43.5,43.2,29.65,SW,225,0.0,0.0,99,0.20,,,0.43,WUHU216HW,2013-12-01 10:09:00,
2013-12-01 02:14:00,43.7,43.4,29.64,SSW,203,0.0,0.0,99,0.18,,,0.45,WUHU216HW,2013-12-01 10:14:00,
2013-12-01 02:19:00,43.7,43.4,29.64,SSW,203,0.0,0.0,99,0.20,,,0.49,WUHU216HW,2013-12-01 10:19:00,
2013-12-01 02:24:00,43.7,43.4,29.64,SSW,203,0.0,0.0,99,0.20,,,0.49,WUHU216HW,2013-12-01 10:24:00,
2013-12-01 02:29:00,43.7,43.4,29.64,SSW,203,0.0,0.0,99,0.18,,,0.49,WUHU216HW,2013-12-01 10:29:00,
2013-12-01 02:34:00,43.7,43.4,29.64,SSW,203,0.0,0.0,99,0.18,,,0.49,WUHU216HW,2013-12-01 10:34:00,
2013-12-01 02:39:00,43.7,43.4,29.64,North,0,0.0,0.0,99,0.18,,,0.49,WUHU216HW,2013-12-01 10:39:00,
2013-12-01 02:44:00,43.7,43.4,29.64,West,270,0.0,0.0,99,0.16,,,0.49,WUHU216HW,2013-12-01 10:44:00,
2013-12-01 02:49:00,43.5,43.2,29.63,West,270,0.0,0.0,99,0.16,,,0.49,WUHU216HW,2013-12-01 10:49:00,
2013-12-01 02:54:00,43.5,43.2,29.62,NW,315,0.0,0.0,99,0.12,,,0.49,WUHU216HW,2013-12-01 10:54:00,
2013-12-01 02:59:00,43.5,43.2,29.63,NW,315,0.0,0.0,99,0.12,,,0.49,WUHU216HW,2013-12-01 10:59:00,
2013-12-01 03:04:00,43.3,43.0,29.64,NNW,338,0.0,0.0,99,0.14,,,0.51,WUHU216HW,2013-12-01 11:04:00,
2013-12-01 03:09:00,43.3,43.0,29.64,NNW,338,0.0,0.0,99,0.08,,,0.51,WUHU216HW,2013-12-01 11:09:00,
2013-12-01 03:14:00,43.3,43.0,29.64,NNW,338,0.0,0.0,99,0.06,,,0.51,WUHU216HW,2013-12-01 11:14:00,
2013-12-01 03:19:00,43.3,43.0,29.64,NNW,338,0.0,0.0,99,0.02,,,0.51,WUHU216HW,2013-12-01 11:19:00,
2013-12-01 03:24:00,43.3,43.0,29.63,NNW,338,0.0,0.0,99,0.02,,,0.51,WUHU216HW,2013-12-01 11:24:00,
2013-12-01 03:29:00,43.3,43.0,29.63,NNW,338,0.0,0.0,99,0.04,,,0.53,WUHU216HW,2013-12-01 11:29:00,
2013-12-01 03:34:00,43.1,42.8,29.62,NNW,338,0.0,0.0,99,0.04,,,0.53,WUHU216HW,2013-12-01 11:34:00,
2013-12-01 03:39:00,43.1,42.8,29.62,NNW,338,0.0,0.0,99,0.09,,,0.58,WUHU216HW,2013-12-01 11:39:00,
2013-12-01 03:44:00,43.1,42.8,29.62,NNW,338,0.0,0.0,99,0.09,,,0.58,WUHU216HW,2013-12-01 11:44:00,
2013-12-01 03:49:00,43.1,42.8,29.62,WNW,293,0.0,0.0,99,0.09,,,0.58,WUHU216HW,2013-12-01 11:49:00,
2013-12-01 03:54:00,43.1,42.8,29.61,WNW,293,0.0,0.0,99,0.10,,,0.59,WUHU216HW,2013-12-01 11:54:00,
2013-12-01 03:59:00,43.1,42.8,29.61,WNW,293,0.0,0.0,99,0.10,,,0.59,WUHU216HW,2013-12-01 11:59:00,
2013-12-01 04:04:00,43.1,42.8,29.60,WNW,293,0.0,0.0,99,0.10,,,0.61,WUHU216HW,2013-12-01 12:04:00,
2013-12-01 04:09:00,42.9,42.7,29.60,NNW,338,0.0,0.0,99,0.10,,,0.61,WUHU216HW,2013-12-01 12:09:00,
2013-12-01 04:14:00,42.9,42.7,29.59,WNW,293,0.0,0.0,99,0.10,,,0.61,WUHU216HW,2013-12-01 12:14:00,
2013-12-01 04:19:00,42.9,42.7,29.59,WNW,293,0.0,0.0,99,0.10,,,0.61,WUHU216HW,2013-12-01 12:19:00,
2013-12-01 04:24:00,42.9,42.7,29.59,WNW,293,0.0,0.0,99,0.12,,,0.63,WUHU216HW,2013-12-01 12:24:00,
2013-12-01 04:29:00,42.9,42.7,29.59,NNW,338,0.0,0.0,99,0.12,,,0.65,WUHU216HW,2013-12-01 12:29:00,
2013-12-01 04:34:00,42.9,42.7,29.59,NNW,338,0.0,0.0,99,0.09,,,0.65,WUHU216HW,2013-12-01 12:34:00,
2013-12-01 04:39:00,42.9,42.7,29.59,NNW,338,0.0,0.0,99,0.07,,,0.65,WUHU216HW,2013-12-01 12:39:00,
2013-12-01 04:44:00,42.9,42.7,29.59,NNW,338,0.0,0.0,99,0.07,,,0.65,WUHU216HW,2013-12-01 12:44:00,
2013-12-01 04:49:00,42.9,42.7,29.59,NNW,338,0.0,0.0,99,0.10,,,0.68,WUHU216HW,2013-12-01 12:49:00,
2013-12-01 04:54:00,42.9,42.7,29.59,NNW,338,0.0,0.0,99,0.09,,,0.68,WUHU216HW,2013-12-01 12:54:00,
2013-12-01 04:59:00,42.9,42.7,29.58,NNW,338,0.0,0.0,99,0.09,,,0.68,WUHU216HW,2013-12-01 12:59:00,
2013-12-01 05:04:00,42.9,42.7,29.58,NNW,338,0.0,0.0,99,0.09,,,0.70,WUHU216HW,2013-12-01 13:04:00,
2013-12-01 05:09:00,42.9,42.7,29.58,NNW,338,0.0,0.0,99,0.09,,,0.70,WUHU216HW,2013-12-01 13:09:00,
2013-12-01 05:14:00,42.9,42.7,29.57,NNW,338,0.0,0.0,99,0.09,,,0.70,WUHU216HW,2013-12-01 13:14:00,
2013-12-01 05:19:00,42.8,42.5,29.57,NNW,338,0.0,0.0,99,0.07,,,0.70,WUHU216HW,2013-12-01 13:19:00,
2013-12-01 05:24:00,42.9,42.7,29.58,NNW,338,0.0,0.0,99,0.09,,,0.72,WUHU216HW,2013-12-01 13:24:00,
2013-12-01 05:29:00,42.8,42.5,29.58,NNW,338,0.0,0.0,99,0.07,,,0.72,WUHU216HW,2013-12-01 13:29:00,
2013-12-01 05:34:00,42.8,42.5,29.57,NNW,338,0.0,0.0,99,0.07,,,0.72,WUHU216HW,2013-12-01 13:34:00,
2013-12-01 05:39:00,42.8,42.5,29.57,NNW,338,0.0,0.0,99,0.07,,,0.72,WUHU216HW,2013-12-01 13:39:00,
2013-12-01 05:44:00,42.8,42.5,29.57,NNW,338,0.0,0.0,99,0.07,,,0.72,WUHU216HW,2013-12-01 13:44:00,
2013-12-01 05:49:00,42.6,42.3,29.57,NNW,338,0.0,0.0,99,0.04,,,0.72,WUHU216HW,2013-12-01 13:49:00,
2013-12-01 05:54:00,42.6,42.3,29.56,NNW,338,0.0,0.0,99,0.04,,,0.72,WUHU216HW,2013-12-01 13:54:00,
2013-12-01 05:59:00,42.6,42.3,29.57,NNW,338,0.0,0.0,99,0.04,,,0.72,WUHU216HW,2013-12-01 13:59:00,
2013-12-01 06:04:00,42.6,42.3,29.56,NNW,338,0.0,0.0,99,0.04,,,0.74,WUHU216HW,2013-12-01 14:04:00,
2013-12-01 06:09:00,42.6,42.3,29.57,NNW,338,0.0,0.0,99,0.04,,,0.74,WUHU216HW,2013-12-01 14:09:00,
2013-12-01 06:14:00,42.6,42.3,29.57,NNW,338,0.0,0.0,99,0.04,,,0.74,WUHU216HW,2013-12-01 14:14:00,
2013-12-01 06:19:00,42.6,42.3,29.57,NNW,338,0.0,0.0,99,0.02,,,0.74,WUHU216HW,2013-12-01 14:19:00,
2013-12-01 06:24:00,42.6,42.3,29.56,NNW,338,0.0,0.0,99,0.02,,,0.74,WUHU216HW,2013-12-01 14:24:00,
2013-12-01 06:29:00,42.6,42.3,29.57,NNW,338,0.0,0.0,99,0.04,,,0.76,WUHU216HW,2013-12-01 14:29:00,
2013-12-01 06:34:00,42.9,42.7,29.57,NNW,338,0.0,0.0,99,0.04,,,0.76,WUHU216HW,2013-12-01 14:34:00,
2013-12-01 06:39:00,42.9,42.7,29.57,NNW,338,0.0,0.0,99,0.06,,,0.78,WUHU216HW,2013-12-01 14:39:00,
2013-12-01 06:44:00,42.9,42.7,29.57,NNW,338,0.0,0.0,99,0.06,,,0.78,WUHU216HW,2013-12-01 14:44:00,
2013-12-01 06:49:00,43.3,43.0,29.57,NNW,338,0.0,0.0,99,0.08,,,0.80,WUHU216HW,2013-12-01 14:49:00,
2013-12-01 06:54:00,43.3,43.0,29.57,NNW,338,0.0,0.0,99,0.08,,,0.80,WUHU216HW,2013-12-01 14:54:00,
2013-12-01 06:59:00,43.5,43.2,29.56,NNW,338,0.0,0.0,99,0.10,,,0.82,WUHU216HW,2013-12-01 14:59:00,
2013-12-01 07:04:00,43.7,43.4,29.57,NNW,338,0.0,0.0,99,0.10,,,0.84,WUHU216HW,2013-12-01 15:04:00,
2013-12-01 07:09:00,43.8,43.6,29.58,NNW,338,0.0,0.0,99,0.10,,,0.84,WUHU216HW,2013-12-01 15:09:00,
2013-12-01 07:14:00,44.0,43.7,29.57,NW,315,0.0,0.0,99,0.12,,,0.86,WUHU216HW,2013-12-01 15:14:00,
2013-12-01 07:19:00,44.2,43.9,29.57,NW,315,0.0,0.0,99,0.12,,,0.86,WUHU216HW,2013-12-01 15:19:00,
2013-12-01 07:24:00,44.4,44.1,29.57,NW,315,0.0,0.0,99,0.14,,,0.88,WUHU216HW,2013-12-01 15:24:00,
2013-12-01 07:29:00,44.4,44.1,29.57,NW,315,0.0,0.0,99,0.14,,,0.90,WUHU216HW,2013-12-01 15:29:00,
2013-12-01 07:34:00,44.4,44.1,29.57,NW,315,0.0,0.0,99,0.14,,,0.90,WUHU216HW,2013-12-01 15:34:00,
2013-12-01 07:39:00,44.6,44.3,29.57,NW,315,0.0,0.0,99,0.12,,,0.90,WUHU216HW,2013-12-01 15:39:00,
2013-12-01 07:44:00,44.9,44.6,29.57,NW,315,0.0,0.0,99,0.12,,,0.90,WUHU216HW,2013-12-01 15:44:00,
2013-12-01 07:49:00,44.9,44.6,29.57,NW,315,0.0,0.0,99,0.12,,,0.92,WUHU216HW,2013-12-01 15:49:00,
2013-12-01 07:54:00,44.9,44.6,29.58,NW,315,0.0,0.0,99,0.10,,,0.92,WUHU216HW,2013-12-01 15:54:00,
2013-12-01 07:59:00,45.1,44.8,29.57,NW,315,0.0,0.0,99,0.12,,,0.94,WUHU216HW,2013-12-01 15:59:00,
2013-12-01 08:04:00,45.1,44.8,29.57,NW,315,0.0,0.0,99,0.14,,,0.98,WUHU216HW,2013-12-01 16:04:00,
2013-12-01 08:09:00,45.1,44.8,29.57,NW,315,0.0,0.0,99,0.14,,,0.98,WUHU216HW,2013-12-01 16:09:00,
2013-12-01 08:14:00,45.3,45.0,29.58,West,270,0.0,0.0,99,0.14,,,1.00,WUHU216HW,2013-12-01 16:14:00,
2013-12-01 08:19:00,45.3,45.0,29.58,WSW,248,0.0,0.0,99,0.12,,,1.00,WUHU216HW,2013-12-01 16:19:00,
2013-12-01 08:24:00,45.5,45.2,29.59,WSW,248,0.0,0.0,99,0.12,,,1.00,WUHU216HW,2013-12-01 16:24:00,
2013-12-01 08:29:00,45.6,45.4,29.58,SSW,203,0.0,0.0,99,0.12,,,1.02,WUHU216HW,2013-12-01 16:29:00,
2013-12-01 08:34:00,45.6,45.4,29.59,SSW,203,0.0,0.0,99,0.12,,,1.02,WUHU216HW,2013-12-01 16:34:00,
2013-12-01 08:39:00,45.6,45.4,29.58,SSW,203,0.0,0.0,99,0.16,,,1.06,WUHU216HW,2013-12-01 16:39:00,
2013-12-01 08:44:00,45.6,45.4,29.58,WNW,293,0.0,0.0,99,0.18,,,1.08,WUHU216HW,2013-12-01 16:44:00,
2013-12-01 08:49:00,45.6,45.4,29.58,West,270,0.0,0.0,99,0.18,,,1.10,WUHU216HW,2013-12-01 16:49:00,
2013-12-01 08:54:00,45.6,45.4,29.58,WNW,293,0.0,0.0,99,0.19,,,1.13,WUHU216HW,2013-12-01 16:54:00,
2013-12-01 08:59:00,45.6,45.4,29.58,West,270,0.0,0.0,99,0.21,,,1.15,WUHU216HW,2013-12-01 16:59:00,
2013-12-01 09:04:00,45.6,45.4,29.58,SSW,203,0.0,0.0,99,0.19,,,1.17,WUHU216HW,2013-12-01 17:04:00,
2013-12-01 09:09:00,45.6,45.4,29.59,WSW,248,0.0,0.0,99,0.19,,,1.17,WUHU216HW,2013-12-01 17:09:00,
2013-12-01 09:14:00,45.8,45.5,29.59,WNW,293,0.0,0.0,99,0.19,,,1.19,WUHU216HW,2013-12-01 17:14:00,
2013-12-01 09:19:00,45.8,45.5,29.59,West,270,0.0,0.0,99,0.19,,,1.19,WUHU216HW,2013-12-01 17:19:00,
2013-12-01 09:24:00,45.6,45.4,29.58,West,270,0.0,0.0,99,0.22,,,1.22,WUHU216HW,2013-12-01 17:24:00,
2013-12-01 09:29:00,45.6,45.4,29.59,West,270,0.0,0.0,99,0.25,,,1.27,WUHU216HW,2013-12-01 17:29:00,
2013-12-01 09:34:00,46.0,45.7,29.59,West,270,0.0,0.0,99,0.25,,,1.27,WUHU216HW,2013-12-01 17:34:00,
2013-12-01 09:39:00,46.0,45.7,29.58,West,270,0.0,0.0,99,0.25,,,1.31,WUHU216HW,2013-12-01 17:39:00,
2013-12-01 09:44:00,46.0,45.7,29.58,West,270,0.0,0.0,99,0.23,,,1.31,WUHU216HW,2013-12-01 17:44:00,
2013-12-01 09:49:00,46.0,45.7,29.58,SW,225,0.0,0.0,99,0.23,,,1.33,WUHU216HW,2013-12-01 17:49:00,
2013-12-01 09:54:00,46.0,45.7,29.59,SW,225,0.0,0.0,99,0.20,,,1.35,WUHU216HW,2013-12-01 17:54:00,
2013-12-01 09:59:00,45.8,45.5,29.59,SW,225,0.0,0.0,99,0.22,,,1.37,WUHU216HW,2013-12-01 17:59:00,
2013-12-01 10:04:00,45.6,45.4,29.59,West,270,0.0,0.0,99,0.22,,,1.39,WUHU216HW,2013-12-01 18:04:00,
2013-12-01 10:09:00,46.0,45.7,29.59,SW,225,0.0,1.3,99,0.22,,,1.39,WUHU216HW,2013-12-01 18:09:00,
2013-12-01 10:14:00,45.8,45.5,29.59,SW,225,0.0,1.3,99,0.22,,,1.41,WUHU216HW,2013-12-01 18:14:00,
2013-12-01 10:19:00,45.8,45.5,29.59,West,270,0.0,0.0,99,0.22,,,1.41,WUHU216HW,2013-12-01 18:19:00,
2013-12-01 10:24:00,45.6,45.4,29.59,NW,315,0.0,0.0,99,0.18,,,1.43,WUHU216HW,2013-12-01 18:24:00,
2013-12-01 10:30:00,45.6,45.4,29.59,WNW,293,0.0,0.0,99,0.16,,,1.43,WUHU216HW,2013-12-01 18:30:00,
2013-12-01 10:35:00,45.6,45.4,29.59,SSE,158,0.0,0.0,99,0.16,,,1.43,WUHU216HW,2013-12-01 18:35:00,
2013-12-01 10:40:00,45.6,45.4,29.58,SSW,203,0.0,0.0,99,0.12,,,1.43,WUHU216HW,2013-12-01 18:40:00,
2013-12-01 10:45:00,45.6,45.4,29.57,SSW,203,0.0,0.0,99,0.14,,,1.45,WUHU216HW,2013-12-01 18:45:00,
2013-12-01 10:50:00,45.6,45.4,29.57,West,270,0.0,0.0,99,0.14,,,1.47,WUHU216HW,2013-12-01 18:50:00,
2013-12-01 10:55:00,45.5,45.2,29.57,WNW,293,0.0,0.0,99,0.10,,,1.47,WUHU216HW,2013-12-01 18:55:00,
2013-12-01 11:00:00,45.5,45.2,29.56,WSW,248,0.0,0.0,99,0.10,,,1.47,WUHU216HW,2013-12-01 19:00:00,
2013-12-01 11:05:00,45.5,45.2,29.56,SW,225,0.0,0.0,99,0.08,,,1.47,WUHU216HW,2013-12-01 19:05:00,
2013-12-01 11:10:00,45.6,45.4,29.56,SW,225,0.0,0.0,99,0.08,,,1.47,WUHU216HW,2013-12-01 19:10:00,
2013-12-01 11:15:00,45.5,45.2,29.56,SW,225,0.0,0.0,99,0.10,,,1.51,WUHU216HW,2013-12-01 19:15:00,
2013-12-01 11:20:00,45.6,45.4,29.56,SW,225,0.0,0.0,99,0.10,,,1.51,WUHU216HW,2013-12-01 19:20:00,
2013-12-01 11:25:00,45.5,45.2,29.56,SW,225,0.0,0.0,99,0.08,,,1.51,WUHU216HW,2013-12-01 19:25:00,
2013-12-01 11:30:00,45.5,45.2,29.56,SSW,203,0.0,0.0,99,0.08,,,1.51,WUHU216HW,2013-12-01 19:30:00,
2013-12-01 11:35:00,45.6,45.4,29.55,SSW,203,0.0,0.0,99,0.08,,,1.51,WUHU216HW,2013-12-01 19:35:00,
2013-12-01 11:40:00,45.6,45.4,29.55,SSW,203,0.0,0.0,99,0.15,,,1.58,WUHU216HW,2013-12-01 19:40:00,
2013-12-01 11:45:00,45.6,45.4,29.55,SW,225,0.0,0.0,99,0.13,,,1.58,WUHU216HW,2013-12-01 19:45:00,
2013-12-01 11:50:00,45.6,45.4,29.54,WNW,293,0.0,0.0,99,0.12,,,1.59,WUHU216HW,2013-12-01 19:50:00,
2013-12-01 11:55:00,45.6,45.4,29.55,WNW,293,0.0,0.0,99,0.12,,,1.59,WUHU216HW,2013-12-01 19:55:00,
2013-12-01 12:00:00,45.5,45.2,29.54,WNW,293,0.0,0.0,99,0.14,,,1.61,WUHU216HW,2013-12-01 20:00:00,
2013-12-01 12:05:00,45.6,45.4,29.54,West,270,0.0,0.0,99,0.14,,,1.61,WUHU216HW,2013-12-01 20:05:00,
2013-12-01 12:10:00,45.6,45.4,29.54,WNW,293,0.0,0.0,99,0.12,,,1.61,WUHU216HW,2013-12-01 20:10:00,
2013-12-01 12:15:00,45.6,45.4,29.53,NW,315,0.0,1.3,99,0.12,,,1.63,WUHU216HW,2013-12-01 20:15:00,
2013-12-01 12:20:00,45.6,45.4,29.53,NW,315,0.0,1.3,99,0.12,,,1.63,WUHU216HW,2013-12-01 20:20:00,
2013-12-01 12:25:00,45.6,45.4,29.53,NW,315,0.0,0.0,99,0.12,,,1.63,WUHU216HW,2013-12-01 20:25:00,
2013-12-01 12:30:00,45.8,45.5,29.52,NW,315,0.0,0.0,99,0.12,,,1.63,WUHU216HW,2013-12-01 20:30:00,
2013-12-01 12:35:00,45.8,45.5,29.52,NW,315,0.0,0.0,99,0.14,,,1.65,WUHU216HW,2013-12-01 20:35:00,
2013-12-01 12:40:00,46.0,45.5,29.52,WNW,293,0.0,0.0,99,0.09,,,1.67,WUHU216HW,2013-12-01 20:40:00,
2013-12-01 12:45:00,46.0,45.7,29.52,West,270,0.0,0.0,99,0.09,,,1.67,WUHU216HW,2013-12-01 20:45:00,
2013-12-01 12:50:00,46.0,45.7,29.52,West,270,0.0,0.0,99,0.08,,,1.67,WUHU216HW,2013-12-01 20:50:00,
2013-12-01 12:55:00,46.0,45.7,29.51,West,270,0.0,0.0,99,0.06,,,1.67,WUHU216HW,2013-12-01 20:55:00,
2013-12-01 13:00:00,46.0,45.7,29.51,WNW,293,0.0,0.0,99,0.06,,,1.67,WUHU216HW,2013-12-01 21:00:00,
2013-12-01 13:05:00,46.2,45.9,29.51,West,270,0.0,0.0,99,0.09,,,1.70,WUHU216HW,2013-12-01 21:05:00,
2013-12-01 13:10:00,46.2,45.9,29.50,West,270,0.0,0.0,99,0.09,,,1.70,WUHU216HW,2013-12-01 21:10:00,
2013-12-01 13:15:00,46.2,45.9,29.50,WSW,248,0.0,0.0,99,0.09,,,1.72,WUHU216HW,2013-12-01 21:15:00,
2013-12-01 13:20:00,46.2,45.9,29.50,NNW,338,0.0,0.0,99,0.09,,,1.72,WUHU216HW,2013-12-01 21:20:00,
2013-12-01 13:25:00,46.2,45.9,29.50,West,270,0.0,0.0,99,0.09,,,1.72,WUHU216HW,2013-12-01 21:25:00,
2013-12-01 13:30:00,46.0,45.7,29.50,West,270,0.0,0.0,99,0.07,,,1.72,WUHU216HW,2013-12-01 21:30:00,
2013-12-01 13:35:00,46.2,45.9,29.50,NW,315,0.0,0.0,99,0.07,,,1.72,WUHU216HW,2013-12-01 21:35:00,
2013-12-01 13:40:00,46.2,45.9,29.50,West,270,0.0,0.0,99,0.07,,,1.74,WUHU216HW,2013-12-01 21:40:00,
2013-12-01 13:45:00,46.2,45.9,29.50,West,270,0.0,0.0,99,0.07,,,1.74,WUHU216HW,2013-12-01 21:45:00,
2013-12-01 13:50:00,46.2,45.9,29.50,WNW,293,0.0,0.0,99,0.09,,,1.76,WUHU216HW,2013-12-01 21:50:00,
2013-12-01 13:55:00,46.2,45.9,29.50,WNW,293,0.0,0.0,99,0.11,,,1.78,WUHU216HW,2013-12-01 21:55:00,
2013-12-01 14:00:00,46.2,45.9,29.49,West,270,0.0,0.0,99,0.11,,,1.78,WUHU216HW,2013-12-01 22:00:00,
2013-12-01 14:05:00,46.2,45.9,29.49,West,270,0.0,0.0,99,0.12,,,1.82,WUHU216HW,2013-12-01 22:05:00,
2013-12-01 14:10:00,46.2,45.9,29.49,West,270,0.0,0.0,99,0.12,,,1.82,WUHU216HW,2013-12-01 22:10:00,
2013-12-01 14:15:00,46.2,45.9,29.49,West,270,0.0,0.0,99,0.10,,,1.82,WUHU216HW,2013-12-01 22:15:00,
2013-12-01 14:20:00,46.2,45.9,29.49,West,270,0.0,0.0,99,0.10,,,1.82,WUHU216HW,2013-12-01 22:20:00,
2013-12-01 14:25:00,46.2,45.9,29.49,West,270,0.0,0.0,99,0.12,,,1.84,WUHU216HW,2013-12-01 22:25:00,
2013-12-01 14:30:00,46.2,45.9,29.48,West,270,0.0,0.0,99,0.12,,,1.84,WUHU216HW,2013-12-01 22:30:00,
2013-12-01 14:35:00,46.2,45.9,29.49,West,270,0.0,0.0,99,0.12,,,1.84,WUHU216HW,2013-12-01 22:35:00,
2013-12-01 14:40:00,46.2,45.9,29.48,West,270,0.0,0.0,99,0.14,,,1.88,WUHU216HW,2013-12-01 22:40:00,
2013-12-01 14:45:00,46.2,45.9,29.48,West,270,0.0,0.0,99,0.14,,,1.88,WUHU216HW,2013-12-01 22:45:00,
2013-12-01 14:50:00,46.2,45.9,29.49,West,270,0.0,0.0,99,0.12,,,1.88,WUHU216HW,2013-12-01 22:50:00,
2013-12-01 14:55:00,46.2,45.9,29.48,West,270,0.0,0.0,99,0.12,,,1.90,WUHU216HW,2013-12-01 22:55:00,
2013-12-01 15:00:00,46.2,45.9,29.48,West,270,0.0,0.0,99,0.12,,,1.90,WUHU216HW,2013-12-01 23:00:00,
2013-12-01 15:05:00,46.5,46.3,29.49,West,270,0.0,0.0,99,0.14,,,1.96,WUHU216HW,2013-12-01 23:05:00,
2013-12-01 15:10:00,46.2,45.9,29.49,West,270,0.0,0.0,99,0.14,,,1.96,WUHU216HW,2013-12-01 23:10:00,
2013-12-01 15:15:00,46.5,46.3,29.48,West,270,0.0,0.0,99,0.16,,,1.98,WUHU216HW,2013-12-01 23:15:00,
2013-12-01 15:20:00,46.4,46.1,29.48,West,270,0.0,0.0,99,0.14,,,1.98,WUHU216HW,2013-12-01 23:20:00,
2013-12-01 15:25:00,46.2,45.9,29.48,West,270,0.0,0.0,99,0.16,,,2.00,WUHU216HW,2013-12-01 23:25:00,
2013-12-01 15:30:00,46.2,45.9,29.47,West,270,0.0,0.0,99,0.16,,,2.00,WUHU216HW,2013-12-01 23:30:00,
2013-12-01 15:35:00,46.2,45.9,29.47,West,270,0.0,0.0,99,0.18,,,2.02,WUHU216HW,2013-12-01 23:35:00,
2013-12-01 15:40:00,46.2,45.9,29.47,West,270,0.0,0.0,99,0.16,,,2.04,WUHU216HW,2013-12-01 23:40:00,
2013-12-01 15:45:00,46.2,45.9,29.47,NW,315,0.0,0.0,99,0.16,,,2.04,WUHU216HW,2013-12-01 23:45:00,
2013-12-01 15:50:00,46.5,46.3,29.47,WNW,293,0.0,0.0,99,0.18,,,2.06,WUHU216HW,2013-12-01 23:50:00,
2013-12-01 15:55:00,46.5,46.3,29.47,WNW,293,0.0,0.0,99,0.18,,,2.08,WUHU216HW,2013-12-01 23:55:00,
2013-12-01 16:00:00,46.4,46.1,29.47,West,270,0.0,0.0,99,0.20,,,2.10,WUHU216HW,2013-12-02 00:00:00,
2013-12-01 16:05:00,46.5,46.3,29.48,West,270,0.0,0.0,99,0.16,,,2.12,WUHU216HW,2013-12-02 00:05:00,
2013-12-01 16:10:00,46.5,46.3,29.47,SW,225,0.0,0.0,99,0.23,,,2.19,WUHU216HW,2013-12-02 00:10:00,
2013-12-01 16:15:00,46.4,46.1,29.47,SW,225,0.0,0.0,99,0.23,,,2.21,WUHU216HW,2013-12-02 00:15:00,
2013-12-01 16:20:00,46.2,45.9,29.47,SW,225,0.0,0.0,99,0.22,,,2.22,WUHU216HW,2013-12-02 00:20:00,
2013-12-01 16:25:00,46.2,45.9,29.46,SW,225,0.0,0.0,99,0.24,,,2.24,WUHU216HW,2013-12-02 00:25:00,
2013-12-01 16:30:00,46.2,45.9,29.46,WSW,248,0.0,0.0,99,0.27,,,2.29,WUHU216HW,2013-12-02 00:30:00,
2013-12-01 16:35:00,46.0,45.7,29.47,WSW,248,0.0,0.0,99,0.27,,,2.29,WUHU216HW,2013-12-02 00:35:00,
2013-12-01 16:40:00,46.0,45.7,29.47,WSW,248,0.0,0.0,99,0.27,,,2.31,WUHU216HW,2013-12-02 00:40:00,
2013-12-01 16:45:00,46.0,45.7,29.47,WSW,248,0.0,0.0,99,0.27,,,2.31,WUHU216HW,2013-12-02 00:45:00,
2013-12-01 16:50:00,45.6,45.4,29.48,SW,225,0.0,0.0,99,0.25,,,2.31,WUHU216HW,2013-12-02 00:50:00,
2013-12-01 16:55:00,45.6,45.4,29.48,WNW,293,0.0,0.0,99,0.23,,,2.33,WUHU216HW,2013-12-02 00:55:00,